sensor_id;sensor_type;location;lat;lon;timestamp;P1;durP1;ratioP1;P2;durP2;ratioP2
36575;SDS011;45700;50.930;5.168;2023-05-10T00:03:22;13.52;;;6.95;;
36575;SDS011;45700;50.930;5.168;2023-05-10T00:07:23;13.77;;;6.53;;
36575;SDS011;45700;50.930;5.168;2023-05-10T00:11:25;15.65;;;6.18;;
36575;SDS011;45700;50.930;5.168;2023-05-10T00:15:26;10.07;;;5.43;;
36575;SDS011;45700;50.930;5.168;2023-05-10T00:19:27;15.05;;;6.82;;
36575;SDS011;45700;50.930;5.168;2023-05-10T00:23:28;13.30;;;6.20;;
36575;SDS011;45700;50.930;5.168;2023-05-10T00:27:29;13.05;;;6.00;;
36575;SDS011;45700;50.930;5.168;2023-05-10T00:31:30;13.88;;;5.05;;
36575;SDS011;45700;50.930;5.168;2023-05-10T00:35:31;12.80;;;6.30;;
36575;SDS011;45700;50.930;5.168;2023-05-10T00:39:32;12.57;;;5.60;;
36575;SDS011;45700;50.930;5.168;2023-05-10T00:43:33;12.93;;;5.63;;
36575;SDS011;45700;50.930;5.168;2023-05-10T00:47:34;14.05;;;6.50;;
36575;SDS011;45700;50.930;5.168;2023-05-10T00:51:35;14.88;;;6.65;;
36575;SDS011;45700;50.930;5.168;2023-05-10T00:55:36;18.10;;;6.25;;
36575;SDS011;45700;50.930;5.168;2023-05-10T00:59:38;13.68;;;6.35;;
36575;SDS011;45700;50.930;5.168;2023-05-10T01:03:39;9.70;;;5.68;;
36575;SDS011;45700;50.930;5.168;2023-05-10T01:07:40;12.52;;;5.25;;
36575;SDS011;45700;50.930;5.168;2023-05-10T01:11:41;10.45;;;5.20;;
36575;SDS011;45700;50.930;5.168;2023-05-10T01:15:42;13.30;;;5.15;;
36575;SDS011;45700;50.930;5.168;2023-05-10T01:19:43;10.82;;;6.05;;
36575;SDS011;45700;50.930;5.168;2023-05-10T01:36:31;11.88;;;4.97;;
36575;SDS011;45700;50.930;5.168;2023-05-10T01:40:35;13.98;;;5.70;;
36575;SDS011;45700;50.930;5.168;2023-05-10T01:44:42;13.02;;;5.85;;
36575;SDS011;45700;50.930;5.168;2023-05-10T01:48:47;18.52;;;6.45;;
36575;SDS011;45700;50.930;5.168;2023-05-10T01:52:53;14.85;;;6.13;;
36575;SDS011;45700;50.930;5.168;2023-05-10T01:56:55;14.88;;;6.20;;
36575;SDS011;45700;50.930;5.168;2023-05-10T02:01:00;11.82;;;6.45;;
36575;SDS011;45700;50.930;5.168;2023-05-10T02:05:02;19.42;;;6.65;;
36575;SDS011;45700;50.930;5.168;2023-05-10T02:09:04;11.30;;;6.00;;
36575;SDS011;45700;50.930;5.168;2023-05-10T02:13:07;21.13;;;7.00;;
36575;SDS011;45700;50.930;5.168;2023-05-10T02:17:08;19.90;;;7.63;;
36575;SDS011;45700;50.930;5.168;2023-05-10T02:21:10;17.45;;;7.35;;
36575;SDS011;45700;50.930;5.168;2023-05-10T02:25:11;15.63;;;7.07;;
36575;SDS011;45700;50.930;5.168;2023-05-10T02:29:13;14.77;;;6.97;;
36575;SDS011;45700;50.930;5.168;2023-05-10T02:33:15;22.65;;;8.13;;
36575;SDS011;45700;50.930;5.168;2023-05-10T02:37:17;23.77;;;7.25;;
36575;SDS011;45700;50.930;5.168;2023-05-10T02:41:19;19.52;;;6.72;;
36575;SDS011;45700;50.930;5.168;2023-05-10T02:45:23;14.90;;;6.65;;
36575;SDS011;45700;50.930;5.168;2023-05-10T02:49:25;19.35;;;7.97;;
36575;SDS011;45700;50.930;5.168;2023-05-10T02:53:33;15.25;;;6.93;;
36575;SDS011;45700;50.930;5.168;2023-05-10T02:57:35;16.23;;;6.65;;
36575;SDS011;45700;50.930;5.168;2023-05-10T03:01:37;16.63;;;6.68;;
36575;SDS011;45700;50.930;5.168;2023-05-10T03:05:38;16.38;;;6.63;;
36575;SDS011;45700;50.930;5.168;2023-05-10T03:09:39;16.63;;;8.27;;
36575;SDS011;45700;50.930;5.168;2023-05-10T03:13:45;19.13;;;6.20;;
36575;SDS011;45700;50.930;5.168;2023-05-10T03:21:51;19.13;;;7.50;;
36575;SDS011;45700;50.930;5.168;2023-05-10T03:25:53;25.77;;;7.78;;
36575;SDS011;45700;50.930;5.168;2023-05-10T03:29:54;17.80;;;7.18;;
36575;SDS011;45700;50.930;5.168;2023-05-10T03:33:56;17.15;;;7.00;;
36575;SDS011;45700;50.930;5.168;2023-05-10T03:37:57;22.17;;;7.25;;
36575;SDS011;45700;50.930;5.168;2023-05-10T03:41:58;20.48;;;7.82;;
36575;SDS011;45700;50.930;5.168;2023-05-10T03:46:01;20.42;;;8.35;;
36575;SDS011;45700;50.930;5.168;2023-05-10T03:50:02;15.93;;;7.28;;
36575;SDS011;45700;50.930;5.168;2023-05-10T03:54:03;29.25;;;9.18;;
36575;SDS011;45700;50.930;5.168;2023-05-10T03:58:04;24.80;;;8.68;;
36575;SDS011;45700;50.930;5.168;2023-05-10T04:02:05;17.35;;;7.15;;
36575;SDS011;45700;50.930;5.168;2023-05-10T04:06:06;19.23;;;7.88;;
36575;SDS011;45700;50.930;5.168;2023-05-10T04:10:09;21.80;;;8.25;;
36575;SDS011;45700;50.930;5.168;2023-05-10T04:14:10;22.23;;;8.25;;
36575;SDS011;45700;50.930;5.168;2023-05-10T04:18:11;23.85;;;8.10;;
36575;SDS011;45700;50.930;5.168;2023-05-10T04:22:12;23.27;;;8.60;;
36575;SDS011;45700;50.930;5.168;2023-05-10T04:26:13;23.60;;;7.40;;
36575;SDS011;45700;50.930;5.168;2023-05-10T04:30:14;22.70;;;8.27;;
36575;SDS011;45700;50.930;5.168;2023-05-10T04:34:15;21.13;;;7.63;;
36575;SDS011;45700;50.930;5.168;2023-05-10T04:38:16;17.20;;;6.97;;
36575;SDS011;45700;50.930;5.168;2023-05-10T04:42:17;21.45;;;8.20;;
36575;SDS011;45700;50.930;5.168;2023-05-10T04:46:18;20.80;;;7.68;;
36575;SDS011;45700;50.930;5.168;2023-05-10T04:50:19;20.75;;;8.10;;
36575;SDS011;45700;50.930;5.168;2023-05-10T04:54:20;24.17;;;8.80;;
36575;SDS011;45700;50.930;5.168;2023-05-10T04:58:21;26.40;;;9.77;;
36575;SDS011;45700;50.930;5.168;2023-05-10T05:02:22;22.10;;;9.13;;
36575;SDS011;45700;50.930;5.168;2023-05-10T05:06:23;21.05;;;8.85;;
36575;SDS011;45700;50.930;5.168;2023-05-10T05:10:25;25.67;;;9.13;;
36575;SDS011;45700;50.930;5.168;2023-05-10T05:14:26;23.27;;;9.32;;
36575;SDS011;45700;50.930;5.168;2023-05-10T05:18:27;26.90;;;9.20;;
36575;SDS011;45700;50.930;5.168;2023-05-10T05:22:27;27.67;;;8.90;;
36575;SDS011;45700;50.930;5.168;2023-05-10T05:26:28;25.02;;;9.70;;
36575;SDS011;45700;50.930;5.168;2023-05-10T05:30:29;26.58;;;9.13;;
36575;SDS011;45700;50.930;5.168;2023-05-10T05:34:31;32.70;;;10.90;;
36575;SDS011;45700;50.930;5.168;2023-05-10T05:38:32;34.20;;;10.55;;
36575;SDS011;45700;50.930;5.168;2023-05-10T05:42:33;37.17;;;10.90;;
36575;SDS011;45700;50.930;5.168;2023-05-10T05:46:34;34.75;;;11.05;;
36575;SDS011;45700;50.930;5.168;2023-05-10T05:50:35;39.72;;;11.82;;
36575;SDS011;45700;50.930;5.168;2023-05-10T05:54:36;38.10;;;11.55;;
36575;SDS011;45700;50.930;5.168;2023-05-10T05:58:37;37.53;;;11.43;;
36575;SDS011;45700;50.930;5.168;2023-05-10T06:02:38;39.53;;;12.48;;
36575;SDS011;45700;50.930;5.168;2023-05-10T06:06:39;42.15;;;13.77;;
36575;SDS011;45700;50.930;5.168;2023-05-10T06:10:40;40.95;;;12.77;;
36575;SDS011;45700;50.930;5.168;2023-05-10T06:14:41;42.85;;;13.98;;
36575;SDS011;45700;50.930;5.168;2023-05-10T06:18:42;48.65;;;12.40;;
36575;SDS011;45700;50.930;5.168;2023-05-10T06:22:43;43.95;;;13.38;;
36575;SDS011;45700;50.930;5.168;2023-05-10T06:26:44;46.33;;;13.98;;
36575;SDS011;45700;50.930;5.168;2023-05-10T06:30:45;49.55;;;14.35;;
36575;SDS011;45700;50.930;5.168;2023-05-10T06:34:46;46.97;;;13.75;;
36575;SDS011;45700;50.930;5.168;2023-05-10T06:38:47;38.70;;;12.73;;
36575;SDS011;45700;50.930;5.168;2023-05-10T06:42:48;43.53;;;13.27;;
36575;SDS011;45700;50.930;5.168;2023-05-10T06:46:49;47.55;;;14.95;;
36575;SDS011;45700;50.930;5.168;2023-05-10T06:50:52;47.42;;;13.25;;
36575;SDS011;45700;50.930;5.168;2023-05-10T06:54:53;41.90;;;13.80;;
36575;SDS011;45700;50.930;5.168;2023-05-10T06:58:54;47.92;;;12.70;;
36575;SDS011;45700;50.930;5.168;2023-05-10T07:02:55;41.72;;;13.10;;
36575;SDS011;45700;50.930;5.168;2023-05-10T07:06:56;46.55;;;12.45;;
36575;SDS011;45700;50.930;5.168;2023-05-10T07:11:04;41.05;;;11.57;;
36575;SDS011;45700;50.930;5.168;2023-05-10T07:15:07;39.78;;;11.00;;
36575;SDS011;45700;50.930;5.168;2023-05-10T07:19:08;35.20;;;11.50;;
36575;SDS011;45700;50.930;5.168;2023-05-10T07:23:09;36.38;;;11.80;;
36575;SDS011;45700;50.930;5.168;2023-05-10T07:27:10;39.05;;;11.68;;
36575;SDS011;45700;50.930;5.168;2023-05-10T07:31:11;36.92;;;11.52;;
36575;SDS011;45700;50.930;5.168;2023-05-10T07:35:12;39.22;;;12.80;;
36575;SDS011;45700;50.930;5.168;2023-05-10T07:39:13;38.30;;;11.88;;
36575;SDS011;45700;50.930;5.168;2023-05-10T07:43:14;38.25;;;10.50;;
36575;SDS011;45700;50.930;5.168;2023-05-10T07:47:15;33.15;;;11.18;;
36575;SDS011;45700;50.930;5.168;2023-05-10T07:51:16;32.90;;;10.98;;
36575;SDS011;45700;50.930;5.168;2023-05-10T07:55:18;16.20;;;5.82;;
36575;SDS011;45700;50.930;5.168;2023-05-10T07:59:19;12.40;;;4.00;;
36575;SDS011;45700;50.930;5.168;2023-05-10T08:03:20;7.78;;;2.83;;
36575;SDS011;45700;50.930;5.168;2023-05-10T08:07:21;5.50;;;2.45;;
36575;SDS011;45700;50.930;5.168;2023-05-10T08:11:22;4.38;;;2.25;;
36575;SDS011;45700;50.930;5.168;2023-05-10T08:15:23;5.97;;;2.65;;
36575;SDS011;45700;50.930;5.168;2023-05-10T08:19:25;5.40;;;2.22;;
36575;SDS011;45700;50.930;5.168;2023-05-10T08:23:26;4.47;;;2.30;;
36575;SDS011;45700;50.930;5.168;2023-05-10T08:27:27;6.90;;;2.40;;
36575;SDS011;45700;50.930;5.168;2023-05-10T08:31:28;7.85;;;2.53;;
36575;SDS011;45700;50.930;5.168;2023-05-10T08:35:29;6.88;;;2.40;;
36575;SDS011;45700;50.930;5.168;2023-05-10T08:39:33;8.38;;;2.83;;
36575;SDS011;45700;50.930;5.168;2023-05-10T08:43:34;5.95;;;2.75;;
36575;SDS011;45700;50.930;5.168;2023-05-10T08:47:36;7.63;;;3.50;;
36575;SDS011;45700;50.930;5.168;2023-05-10T08:51:39;6.18;;;2.80;;
36575;SDS011;45700;50.930;5.168;2023-05-10T08:55:41;6.47;;;2.92;;
36575;SDS011;45700;50.930;5.168;2023-05-10T08:59:42;7.50;;;3.60;;
36575;SDS011;45700;50.930;5.168;2023-05-10T09:03:44;5.88;;;3.00;;
36575;SDS011;45700;50.930;5.168;2023-05-10T09:07:47;10.95;;;3.35;;
36575;SDS011;45700;50.930;5.168;2023-05-10T09:11:47;6.80;;;3.00;;
36575;SDS011;45700;50.930;5.168;2023-05-10T09:15:49;8.90;;;3.58;;
36575;SDS011;45700;50.930;5.168;2023-05-10T09:19:57;8.00;;;3.50;;
36575;SDS011;45700;50.930;5.168;2023-05-10T09:23:58;7.53;;;3.78;;
36575;SDS011;45700;50.930;5.168;2023-05-10T09:28:05;10.02;;;3.65;;
36575;SDS011;45700;50.930;5.168;2023-05-10T09:32:07;9.95;;;3.85;;
36575;SDS011;45700;50.930;5.168;2023-05-10T09:36:08;10.93;;;4.70;;
36575;SDS011;45700;50.930;5.168;2023-05-10T09:40:19;12.13;;;4.65;;
36575;SDS011;45700;50.930;5.168;2023-05-10T09:44:20;16.23;;;5.07;;
36575;SDS011;45700;50.930;5.168;2023-05-10T09:48:23;10.35;;;4.30;;
36575;SDS011;45700;50.930;5.168;2023-05-10T09:52:24;11.85;;;5.35;;
36575;SDS011;45700;50.930;5.168;2023-05-10T09:56:35;10.80;;;4.57;;
36575;SDS011;45700;50.930;5.168;2023-05-10T10:00:38;15.00;;;4.93;;
36575;SDS011;45700;50.930;5.168;2023-05-10T10:04:39;10.07;;;4.32;;
36575;SDS011;45700;50.930;5.168;2023-05-10T10:08:40;13.25;;;5.15;;
36575;SDS011;45700;50.930;5.168;2023-05-10T10:12:41;13.15;;;4.97;;
36575;SDS011;45700;50.930;5.168;2023-05-10T10:16:42;15.93;;;4.70;;
36575;SDS011;45700;50.930;5.168;2023-05-10T10:20:43;12.68;;;5.28;;
36575;SDS011;45700;50.930;5.168;2023-05-10T10:24:45;9.63;;;3.97;;
36575;SDS011;45700;50.930;5.168;2023-05-10T10:29:30;12.60;;;4.80;;
36575;SDS011;45700;50.930;5.168;2023-05-10T10:37:14;10.57;;;4.40;;
36575;SDS011;45700;50.930;5.168;2023-05-10T10:41:28;10.30;;;4.32;;
36575;SDS011;45700;50.930;5.168;2023-05-10T10:45:29;10.75;;;4.03;;
36575;SDS011;45700;50.930;5.168;2023-05-10T10:50:01;9.98;;;4.10;;
36575;SDS011;45700;50.930;5.168;2023-05-10T10:53:52;8.23;;;4.22;;
36575;SDS011;45700;50.930;5.168;2023-05-10T10:57:55;8.85;;;3.45;;
36575;SDS011;45700;50.930;5.168;2023-05-10T11:02:04;8.38;;;3.45;;
36575;SDS011;45700;50.930;5.168;2023-05-10T11:06:07;7.72;;;3.83;;
36575;SDS011;45700;50.930;5.168;2023-05-10T11:10:08;6.30;;;3.13;;
36575;SDS011;45700;50.930;5.168;2023-05-10T11:14:09;9.40;;;4.10;;
36575;SDS011;45700;50.930;5.168;2023-05-10T11:22:18;6.30;;;3.28;;
36575;SDS011;45700;50.930;5.168;2023-05-10T11:26:19;6.25;;;3.00;;
36575;SDS011;45700;50.930;5.168;2023-05-10T11:30:23;3.50;;;2.30;;
36575;SDS011;45700;50.930;5.168;2023-05-10T11:38:28;6.07;;;2.85;;
36575;SDS011;45700;50.930;5.168;2023-05-10T11:42:29;4.43;;;2.53;;
36575;SDS011;45700;50.930;5.168;2023-05-10T11:46:30;4.63;;;2.58;;
36575;SDS011;45700;50.930;5.168;2023-05-10T11:50:31;5.32;;;2.75;;
36575;SDS011;45700;50.930;5.168;2023-05-10T11:54:32;5.05;;;2.28;;
36575;SDS011;45700;50.930;5.168;2023-05-10T11:58:35;5.57;;;2.55;;
36575;SDS011;45700;50.930;5.168;2023-05-10T12:02:36;4.03;;;2.20;;
36575;SDS011;45700;50.930;5.168;2023-05-10T12:06:39;7.00;;;2.00;;
36575;SDS011;45700;50.930;5.168;2023-05-10T12:10:41;6.10;;;2.53;;
36575;SDS011;45700;50.930;5.168;2023-05-10T12:14:42;3.13;;;1.90;;
36575;SDS011;45700;50.930;5.168;2023-05-10T12:18:43;3.78;;;2.05;;
36575;SDS011;45700;50.930;5.168;2023-05-10T12:22:54;4.45;;;2.13;;
36575;SDS011;45700;50.930;5.168;2023-05-10T12:26:55;2.40;;;1.60;;
36575;SDS011;45700;50.930;5.168;2023-05-10T12:30:59;1.75;;;1.23;;
36575;SDS011;45700;50.930;5.168;2023-05-10T12:35:00;3.20;;;1.70;;
36575;SDS011;45700;50.930;5.168;2023-05-10T12:39:04;3.70;;;1.80;;
36575;SDS011;45700;50.930;5.168;2023-05-10T12:43:05;3.00;;;1.33;;
36575;SDS011;45700;50.930;5.168;2023-05-10T12:47:06;1.25;;;0.90;;
36575;SDS011;45700;50.930;5.168;2023-05-10T12:51:07;1.70;;;1.15;;
36575;SDS011;45700;50.930;5.168;2023-05-10T12:55:09;1.70;;;1.10;;
36575;SDS011;45700;50.930;5.168;2023-05-10T12:59:10;1.25;;;1.00;;
36575;SDS011;45700;50.930;5.168;2023-05-10T13:03:11;1.35;;;1.08;;
36575;SDS011;45700;50.930;5.168;2023-05-10T13:07:12;2.05;;;1.23;;
36575;SDS011;45700;50.930;5.168;2023-05-10T13:11:13;3.05;;;1.23;;
36575;SDS011;45700;50.930;5.168;2023-05-10T13:15:16;2.00;;;1.10;;
36575;SDS011;45700;50.930;5.168;2023-05-10T13:19:17;2.00;;;1.15;;
36575;SDS011;45700;50.930;5.168;2023-05-10T13:23:18;1.88;;;1.40;;
36575;SDS011;45700;50.930;5.168;2023-05-10T13:27:19;1.73;;;1.17;;
36575;SDS011;45700;50.930;5.168;2023-05-10T13:31:21;2.25;;;1.40;;
36575;SDS011;45700;50.930;5.168;2023-05-10T13:35:22;1.23;;;1.05;;
36575;SDS011;45700;50.930;5.168;2023-05-10T13:39:23;1.50;;;0.98;;
36575;SDS011;45700;50.930;5.168;2023-05-10T13:43:24;1.35;;;1.00;;
36575;SDS011;45700;50.930;5.168;2023-05-10T13:47:25;2.15;;;1.58;;
36575;SDS011;45700;50.930;5.168;2023-05-10T13:51:26;1.67;;;1.17;;
36575;SDS011;45700;50.930;5.168;2023-05-10T13:55:27;1.80;;;1.30;;
36575;SDS011;45700;50.930;5.168;2023-05-10T13:59:28;6.10;;;1.60;;
36575;SDS011;45700;50.930;5.168;2023-05-10T14:03:31;1.83;;;1.23;;
36575;SDS011;45700;50.930;5.168;2023-05-10T14:07:32;2.78;;;1.58;;
36575;SDS011;45700;50.930;5.168;2023-05-10T14:11:33;4.70;;;1.70;;
36575;SDS011;45700;50.930;5.168;2023-05-10T14:15:34;4.20;;;1.67;;
36575;SDS011;45700;50.930;5.168;2023-05-10T14:19:35;2.30;;;1.40;;
36575;SDS011;45700;50.930;5.168;2023-05-10T14:24:15;1.90;;;1.30;;
36575;SDS011;45700;50.930;5.168;2023-05-10T14:28:16;4.45;;;1.63;;
36575;SDS011;45700;50.930;5.168;2023-05-10T14:32:18;2.78;;;1.65;;
36575;SDS011;45700;50.930;5.168;2023-05-10T14:36:19;2.33;;;1.20;;
36575;SDS011;45700;50.930;5.168;2023-05-10T14:40:20;3.58;;;1.63;;
36575;SDS011;45700;50.930;5.168;2023-05-10T14:44:21;2.70;;;1.23;;
36575;SDS011;45700;50.930;5.168;2023-05-10T14:48:23;3.30;;;1.50;;
36575;SDS011;45700;50.930;5.168;2023-05-10T14:52:24;2.03;;;1.15;;
36575;SDS011;45700;50.930;5.168;2023-05-10T14:56:25;3.97;;;1.30;;
36575;SDS011;45700;50.930;5.168;2023-05-10T15:00:28;2.28;;;1.50;;
36575;SDS011;45700;50.930;5.168;2023-05-10T15:04:29;2.33;;;1.50;;
36575;SDS011;45700;50.930;5.168;2023-05-10T15:08:30;3.00;;;1.80;;
36575;SDS011;45700;50.930;5.168;2023-05-10T15:12:31;3.38;;;1.60;;
36575;SDS011;45700;50.930;5.168;2023-05-10T15:16:32;3.72;;;1.75;;
36575;SDS011;45700;50.930;5.168;2023-05-10T15:20:33;3.58;;;1.67;;
36575;SDS011;45700;50.930;5.168;2023-05-10T15:24:34;3.97;;;2.08;;
36575;SDS011;45700;50.930;5.168;2023-05-10T15:28:35;4.35;;;2.25;;
36575;SDS011;45700;50.930;5.168;2023-05-10T15:32:36;5.28;;;2.40;;
36575;SDS011;45700;50.930;5.168;2023-05-10T15:36:39;2.70;;;1.95;;
36575;SDS011;45700;50.930;5.168;2023-05-10T15:40:40;5.40;;;2.42;;
36575;SDS011;45700;50.930;5.168;2023-05-10T15:44:41;4.15;;;2.17;;
36575;SDS011;45700;50.930;5.168;2023-05-10T15:48:44;4.88;;;2.70;;
36575;SDS011;45700;50.930;5.168;2023-05-10T15:52:45;5.15;;;2.70;;
36575;SDS011;45700;50.930;5.168;2023-05-10T15:56:46;3.53;;;2.08;;
36575;SDS011;45700;50.930;5.168;2023-05-10T16:00:48;5.40;;;2.60;;
36575;SDS011;45700;50.930;5.168;2023-05-10T16:04:49;5.28;;;2.50;;
36575;SDS011;45700;50.930;5.168;2023-05-10T16:08:50;4.57;;;2.50;;
36575;SDS011;45700;50.930;5.168;2023-05-10T16:12:52;7.82;;;2.88;;
36575;SDS011;45700;50.930;5.168;2023-05-10T16:16:53;5.70;;;2.72;;
36575;SDS011;45700;50.930;5.168;2023-05-10T16:20:54;5.00;;;2.30;;
36575;SDS011;45700;50.930;5.168;2023-05-10T16:24:56;7.03;;;3.08;;
36575;SDS011;45700;50.930;5.168;2023-05-10T16:28:57;9.20;;;2.72;;
36575;SDS011;45700;50.930;5.168;2023-05-10T16:32:58;6.28;;;2.90;;
36575;SDS011;45700;50.930;5.168;2023-05-10T16:37:00;5.35;;;2.58;;
36575;SDS011;45700;50.930;5.168;2023-05-10T16:41:01;8.88;;;3.17;;
36575;SDS011;45700;50.930;5.168;2023-05-10T16:45:02;9.15;;;3.05;;
36575;SDS011;45700;50.930;5.168;2023-05-10T16:49:06;7.05;;;3.40;;
36575;SDS011;45700;50.930;5.168;2023-05-10T16:53:07;12.30;;;4.97;;
36575;SDS011;45700;50.930;5.168;2023-05-10T16:57:10;10.70;;;4.53;;
36575;SDS011;45700;50.930;5.168;2023-05-10T17:01:11;9.25;;;4.10;;
36575;SDS011;45700;50.930;5.168;2023-05-10T17:05:12;12.18;;;5.00;;
36575;SDS011;45700;50.930;5.168;2023-05-10T17:09:13;13.73;;;6.05;;
36575;SDS011;45700;50.930;5.168;2023-05-10T17:13:14;15.48;;;5.75;;
36575;SDS011;45700;50.930;5.168;2023-05-10T17:17:16;12.10;;;5.93;;
36575;SDS011;45700;50.930;5.168;2023-05-10T17:21:17;11.55;;;5.10;;
36575;SDS011;45700;50.930;5.168;2023-05-10T17:25:18;10.68;;;5.50;;
36575;SDS011;45700;50.930;5.168;2023-05-10T17:29:20;13.90;;;5.78;;
36575;SDS011;45700;50.930;5.168;2023-05-10T17:33:21;11.88;;;5.57;;
36575;SDS011;45700;50.930;5.168;2023-05-10T17:37:22;13.38;;;6.30;;
36575;SDS011;45700;50.930;5.168;2023-05-10T17:41:23;13.82;;;6.32;;
36575;SDS011;45700;50.930;5.168;2023-05-10T17:45:24;12.82;;;6.10;;
36575;SDS011;45700;50.930;5.168;2023-05-10T17:49:26;13.15;;;5.80;;
36575;SDS011;45700;50.930;5.168;2023-05-10T17:53:27;14.45;;;6.45;;
36575;SDS011;45700;50.930;5.168;2023-05-10T17:57:28;17.73;;;6.78;;
36575;SDS011;45700;50.930;5.168;2023-05-10T18:01:29;12.98;;;6.68;;
36575;SDS011;45700;50.930;5.168;2023-05-10T18:05:33;14.50;;;7.15;;
36575;SDS011;45700;50.930;5.168;2023-05-10T18:09:34;13.82;;;6.82;;
36575;SDS011;45700;50.930;5.168;2023-05-10T18:13:35;15.10;;;6.45;;
36575;SDS011;45700;50.930;5.168;2023-05-10T18:17:37;14.75;;;6.85;;
36575;SDS011;45700;50.930;5.168;2023-05-10T18:21:38;15.73;;;6.93;;
36575;SDS011;45700;50.930;5.168;2023-05-10T18:25:39;13.68;;;6.20;;
36575;SDS011;45700;50.930;5.168;2023-05-10T18:29:40;15.90;;;6.72;;
36575;SDS011;45700;50.930;5.168;2023-05-10T18:33:41;13.23;;;6.97;;
36575;SDS011;45700;50.930;5.168;2023-05-10T18:37:42;15.07;;;6.90;;
36575;SDS011;45700;50.930;5.168;2023-05-10T18:41:43;16.35;;;6.90;;
36575;SDS011;45700;50.930;5.168;2023-05-10T18:45:45;16.25;;;5.85;;
36575;SDS011;45700;50.930;5.168;2023-05-10T18:49:45;11.55;;;5.90;;
36575;SDS011;45700;50.930;5.168;2023-05-10T18:53:47;9.05;;;5.15;;
36575;SDS011;45700;50.930;5.168;2023-05-10T18:57:48;9.32;;;4.30;;
36575;SDS011;45700;50.930;5.168;2023-05-10T19:01:49;14.35;;;5.28;;
36575;SDS011;45700;50.930;5.168;2023-05-10T19:05:50;13.40;;;5.43;;
36575;SDS011;45700;50.930;5.168;2023-05-10T19:09:51;13.93;;;6.43;;
36575;SDS011;45700;50.930;5.168;2023-05-10T19:13:52;12.60;;;6.55;;
36575;SDS011;45700;50.930;5.168;2023-05-10T19:17:53;13.98;;;6.53;;
36575;SDS011;45700;50.930;5.168;2023-05-10T19:21:54;16.38;;;7.10;;
36575;SDS011;45700;50.930;5.168;2023-05-10T19:25:55;17.88;;;7.65;;
36575;SDS011;45700;50.930;5.168;2023-05-10T19:29:56;15.50;;;6.40;;
36575;SDS011;45700;50.930;5.168;2023-05-10T19:33:57;16.73;;;7.95;;
36575;SDS011;45700;50.930;5.168;2023-05-10T19:37:58;18.55;;;7.43;;
36575;SDS011;45700;50.930;5.168;2023-05-10T19:41:59;17.83;;;7.72;;
36575;SDS011;45700;50.930;5.168;2023-05-10T19:46:00;16.95;;;7.60;;
36575;SDS011;45700;50.930;5.168;2023-05-10T19:50:02;18.77;;;7.97;;
36575;SDS011;45700;50.930;5.168;2023-05-10T19:54:03;17.77;;;7.72;;
36575;SDS011;45700;50.930;5.168;2023-05-10T19:58:04;17.38;;;7.93;;
36575;SDS011;45700;50.930;5.168;2023-05-10T20:02:05;17.52;;;8.68;;
36575;SDS011;45700;50.930;5.168;2023-05-10T20:06:06;14.73;;;7.93;;
36575;SDS011;45700;50.930;5.168;2023-05-10T20:10:07;16.65;;;7.68;;
36575;SDS011;45700;50.930;5.168;2023-05-10T20:14:09;16.45;;;7.80;;
36575;SDS011;45700;50.930;5.168;2023-05-10T20:18:10;16.55;;;8.10;;
36575;SDS011;45700;50.930;5.168;2023-05-10T20:22:12;17.98;;;8.13;;
36575;SDS011;45700;50.930;5.168;2023-05-10T20:26:13;15.57;;;7.60;;
36575;SDS011;45700;50.930;5.168;2023-05-10T20:30:14;15.60;;;8.05;;
36575;SDS011;45700;50.930;5.168;2023-05-10T20:34:16;16.90;;;8.10;;
36575;SDS011;45700;50.930;5.168;2023-05-10T20:38:17;14.73;;;7.25;;
36575;SDS011;45700;50.930;5.168;2023-05-10T20:42:18;18.33;;;7.45;;
36575;SDS011;45700;50.930;5.168;2023-05-10T20:46:19;20.05;;;7.88;;
36575;SDS011;45700;50.930;5.168;2023-05-10T20:50:22;20.55;;;8.88;;
36575;SDS011;45700;50.930;5.168;2023-05-10T20:54:23;15.40;;;8.20;;
36575;SDS011;45700;50.930;5.168;2023-05-10T20:58:24;18.77;;;8.27;;
36575;SDS011;45700;50.930;5.168;2023-05-10T21:02:25;15.10;;;7.63;;
36575;SDS011;45700;50.930;5.168;2023-05-10T21:06:26;18.00;;;8.20;;
36575;SDS011;45700;50.930;5.168;2023-05-10T21:10:26;16.63;;;8.45;;
36575;SDS011;45700;50.930;5.168;2023-05-10T21:14:28;22.02;;;8.63;;
36575;SDS011;45700;50.930;5.168;2023-05-10T21:18:29;17.13;;;7.72;;
36575;SDS011;45700;50.930;5.168;2023-05-10T21:22:30;19.95;;;7.97;;
36575;SDS011;45700;50.930;5.168;2023-05-10T21:26:32;21.25;;;7.60;;
36575;SDS011;45700;50.930;5.168;2023-05-10T21:30:33;19.85;;;8.27;;
36575;SDS011;45700;50.930;5.168;2023-05-10T21:34:33;19.95;;;8.35;;
36575;SDS011;45700;50.930;5.168;2023-05-10T21:38:35;21.05;;;8.52;;
36575;SDS011;45700;50.930;5.168;2023-05-10T21:42:36;20.67;;;9.02;;
36575;SDS011;45700;50.930;5.168;2023-05-10T21:46:37;21.20;;;8.73;;
36575;SDS011;45700;50.930;5.168;2023-05-10T21:50:38;19.70;;;8.07;;
36575;SDS011;45700;50.930;5.168;2023-05-10T21:54:39;19.27;;;7.97;;
36575;SDS011;45700;50.930;5.168;2023-05-10T21:58:40;18.85;;;9.10;;
36575;SDS011;45700;50.930;5.168;2023-05-10T22:02:41;18.85;;;8.30;;
36575;SDS011;45700;50.930;5.168;2023-05-10T22:06:42;20.92;;;8.93;;
36575;SDS011;45700;50.930;5.168;2023-05-10T22:10:44;20.90;;;8.15;;
36575;SDS011;45700;50.930;5.168;2023-05-10T22:14:45;19.48;;;8.50;;
36575;SDS011;45700;50.930;5.168;2023-05-10T22:18:46;25.48;;;8.82;;
36575;SDS011;45700;50.930;5.168;2023-05-10T22:22:47;18.83;;;9.45;;
36575;SDS011;45700;50.930;5.168;2023-05-10T22:26:48;22.40;;;9.65;;
36575;SDS011;45700;50.930;5.168;2023-05-10T22:30:49;27.05;;;9.75;;
36575;SDS011;45700;50.930;5.168;2023-05-10T22:34:50;20.58;;;8.65;;
36575;SDS011;45700;50.930;5.168;2023-05-10T22:38:51;18.25;;;9.18;;
36575;SDS011;45700;50.930;5.168;2023-05-10T22:42:52;20.95;;;9.57;;
36575;SDS011;45700;50.930;5.168;2023-05-10T22:46:53;25.63;;;10.02;;
36575;SDS011;45700;50.930;5.168;2023-05-10T22:50:54;21.65;;;9.02;;
36575;SDS011;45700;50.930;5.168;2023-05-10T22:54:55;24.15;;;9.63;;
36575;SDS011;45700;50.930;5.168;2023-05-10T22:58:56;27.05;;;10.73;;
36575;SDS011;45700;50.930;5.168;2023-05-10T23:02:57;27.48;;;10.32;;
36575;SDS011;45700;50.930;5.168;2023-05-10T23:06:58;28.63;;;10.80;;
36575;SDS011;45700;50.930;5.168;2023-05-10T23:10:59;20.20;;;10.48;;
36575;SDS011;45700;50.930;5.168;2023-05-10T23:15:00;27.10;;;10.18;;
36575;SDS011;45700;50.930;5.168;2023-05-10T23:19:01;25.83;;;9.75;;
36575;SDS011;45700;50.930;5.168;2023-05-10T23:23:02;26.10;;;10.90;;
36575;SDS011;45700;50.930;5.168;2023-05-10T23:27:03;26.02;;;11.50;;
36575;SDS011;45700;50.930;5.168;2023-05-10T23:31:04;25.65;;;11.48;;
36575;SDS011;45700;50.930;5.168;2023-05-10T23:35:06;25.13;;;10.13;;
36575;SDS011;45700;50.930;5.168;2023-05-10T23:39:07;24.95;;;10.00;;
36575;SDS011;45700;50.930;5.168;2023-05-10T23:43:08;25.48;;;10.63;;
36575;SDS011;45700;50.930;5.168;2023-05-10T23:47:09;21.23;;;9.35;;
36575;SDS011;45700;50.930;5.168;2023-05-10T23:51:10;29.23;;;9.88;;
36575;SDS011;45700;50.930;5.168;2023-05-10T23:55:11;19.20;;;9.20;;
36575;SDS011;45700;50.930;5.168;2023-05-10T23:59:12;23.92;;;9.55;;
